sensor_id;sensor_type;location;lat;lon;timestamp;temperature;humidity
10826;DHT22;5466;55.898;14.094;2024-01-30T00:00:56;-1.50;99.90
10826;DHT22;5466;55.898;14.094;2024-01-30T00:02:57;-1.50;99.90
10826;DHT22;5466;55.898;14.094;2024-01-30T00:04:58;-1.50;99.90
10826;DHT22;5466;55.898;14.094;2024-01-30T00:06:58;-1.50;99.90
10826;DHT22;5466;55.898;14.094;2024-01-30T00:08:59;-1.50;99.90
10826;DHT22;5466;55.898;14.094;2024-01-30T00:11:00;-1.50;99.90
10826;DHT22;5466;55.898;14.094;2024-01-30T00:13:01;-1.50;99.90
10826;DHT22;5466;55.898;14.094;2024-01-30T00:15:02;-1.50;99.90
10826;DHT22;5466;55.898;14.094;2024-01-30T00:17:04;-1.50;99.90
10826;DHT22;5466;55.898;14.094;2024-01-30T00:19:05;-1.50;99.90
10826;DHT22;5466;55.898;14.094;2024-01-30T00:21:06;-1.40;99.90
10826;DHT22;5466;55.898;14.094;2024-01-30T00:23:06;-1.40;99.90
10826;DHT22;5466;55.898;14.094;2024-01-30T00:25:07;-1.40;99.90
10826;DHT22;5466;55.898;14.094;2024-01-30T00:27:08;-1.40;99.90
10826;DHT22;5466;55.898;14.094;2024-01-30T00:29:09;-1.40;99.90
10826;DHT22;5466;55.898;14.094;2024-01-30T00:31:09;-1.40;99.90
10826;DHT22;5466;55.898;14.094;2024-01-30T00:33:13;-1.50;99.90
10826;DHT22;5466;55.898;14.094;2024-01-30T00:35:14;-1.50;99.90
10826;DHT22;5466;55.898;14.094;2024-01-30T00:37:14;-1.50;99.90
10826;DHT22;5466;55.898;14.094;2024-01-30T00:39:15;-1.50;99.90
10826;DHT22;5466;55.898;14.094;2024-01-30T00:41:18;-1.50;99.90
10826;DHT22;5466;55.898;14.094;2024-01-30T00:43:19;-1.50;99.90
10826;DHT22;5466;55.898;14.094;2024-01-30T00:45:21;-1.60;99.90
10826;DHT22;5466;55.898;14.094;2024-01-30T00:47:22;-1.60;99.90
10826;DHT22;5466;55.898;14.094;2024-01-30T00:49:22;-1.60;99.90
10826;DHT22;5466;55.898;14.094;2024-01-30T00:51:23;-1.60;99.90
10826;DHT22;5466;55.898;14.094;2024-01-30T00:53:24;-1.70;99.90
10826;DHT22;5466;55.898;14.094;2024-01-30T00:55:24;-1.60;99.90
10826;DHT22;5466;55.898;14.094;2024-01-30T00:57:25;-1.60;99.90
10826;DHT22;5466;55.898;14.094;2024-01-30T00:59:26;-1.60;99.90
10826;DHT22;5466;55.898;14.094;2024-01-30T01:01:26;-1.60;99.90
10826;DHT22;5466;55.898;14.094;2024-01-30T01:03:27;-1.60;99.90
10826;DHT22;5466;55.898;14.094;2024-01-30T01:05:27;-1.70;99.90
10826;DHT22;5466;55.898;14.094;2024-01-30T01:07:28;-1.70;99.90
10826;DHT22;5466;55.898;14.094;2024-01-30T01:09:29;-1.70;99.90
10826;DHT22;5466;55.898;14.094;2024-01-30T01:11:29;-1.70;99.90
10826;DHT22;5466;55.898;14.094;2024-01-30T01:13:30;-1.70;99.90
10826;DHT22;5466;55.898;14.094;2024-01-30T01:15:30;-1.70;99.90
10826;DHT22;5466;55.898;14.094;2024-01-30T01:17:31;-1.80;99.90
10826;DHT22;5466;55.898;14.094;2024-01-30T01:19:32;-1.80;99.90
10826;DHT22;5466;55.898;14.094;2024-01-30T01:21:32;-1.90;99.90
10826;DHT22;5466;55.898;14.094;2024-01-30T01:23:33;-1.90;99.90
10826;DHT22;5466;55.898;14.094;2024-01-30T01:25:34;-1.90;99.90
10826;DHT22;5466;55.898;14.094;2024-01-30T01:27:34;-1.80;99.90
10826;DHT22;5466;55.898;14.094;2024-01-30T01:29:40;-1.90;99.90
10826;DHT22;5466;55.898;14.094;2024-01-30T01:31:41;-1.90;99.90
10826;DHT22;5466;55.898;14.094;2024-01-30T01:33:44;-1.90;99.90
10826;DHT22;5466;55.898;14.094;2024-01-30T01:35:45;-1.80;99.90
10826;DHT22;5466;55.898;14.094;2024-01-30T01:37:45;-1.80;99.90
10826;DHT22;5466;55.898;14.094;2024-01-30T01:39:46;-1.80;99.90
10826;DHT22;5466;55.898;14.094;2024-01-30T01:41:46;-1.80;99.90
10826;DHT22;5466;55.898;14.094;2024-01-30T01:43:47;-1.90;99.90
10826;DHT22;5466;55.898;14.094;2024-01-30T01:45:48;-1.90;99.90
10826;DHT22;5466;55.898;14.094;2024-01-30T01:47:51;-1.90;99.90
10826;DHT22;5466;55.898;14.094;2024-01-30T01:49:52;-1.90;99.90
10826;DHT22;5466;55.898;14.094;2024-01-30T01:51:54;-1.90;99.90
10826;DHT22;5466;55.898;14.094;2024-01-30T01:53:58;-1.90;99.90
10826;DHT22;5466;55.898;14.094;2024-01-30T01:56:01;-1.90;99.90
10826;DHT22;5466;55.898;14.094;2024-01-30T01:58:02;-1.80;99.90
10826;DHT22;5466;55.898;14.094;2024-01-30T02:00:03;-1.80;99.90
10826;DHT22;5466;55.898;14.094;2024-01-30T02:02:07;-1.80;99.90
10826;DHT22;5466;55.898;14.094;2024-01-30T02:04:11;-1.70;99.90
10826;DHT22;5466;55.898;14.094;2024-01-30T02:06:15;-1.60;99.90
10826;DHT22;5466;55.898;14.094;2024-01-30T02:08:16;-1.60;99.90
10826;DHT22;5466;55.898;14.094;2024-01-30T02:10:17;-1.60;99.90
10826;DHT22;5466;55.898;14.094;2024-01-30T02:12:18;-1.60;99.90
10826;DHT22;5466;55.898;14.094;2024-01-30T02:14:18;-1.60;99.90
10826;DHT22;5466;55.898;14.094;2024-01-30T02:16:19;-1.60;99.90
10826;DHT22;5466;55.898;14.094;2024-01-30T02:18:20;-1.50;99.90
10826;DHT22;5466;55.898;14.094;2024-01-30T02:20:23;-1.50;99.90
10826;DHT22;5466;55.898;14.094;2024-01-30T02:22:25;-1.40;99.90
10826;DHT22;5466;55.898;14.094;2024-01-30T02:24:25;-1.40;99.90
10826;DHT22;5466;55.898;14.094;2024-01-30T02:26:26;-1.40;99.90
10826;DHT22;5466;55.898;14.094;2024-01-30T02:28:27;-1.40;99.90
10826;DHT22;5466;55.898;14.094;2024-01-30T02:30:27;-1.30;99.90
10826;DHT22;5466;55.898;14.094;2024-01-30T02:32:28;-1.20;99.90
10826;DHT22;5466;55.898;14.094;2024-01-30T02:34:29;-1.20;99.90
10826;DHT22;5466;55.898;14.094;2024-01-30T02:36:29;-1.00;99.90
10826;DHT22;5466;55.898;14.094;2024-01-30T02:38:30;-1.00;99.90
10826;DHT22;5466;55.898;14.094;2024-01-30T02:40:31;-0.90;99.90
10826;DHT22;5466;55.898;14.094;2024-01-30T02:42:31;-0.90;99.90
10826;DHT22;5466;55.898;14.094;2024-01-30T02:44:32;-0.80;99.90
10826;DHT22;5466;55.898;14.094;2024-01-30T02:46:33;-0.70;99.90
10826;DHT22;5466;55.898;14.094;2024-01-30T02:48:33;-0.60;99.90
10826;DHT22;5466;55.898;14.094;2024-01-30T02:50:34;-0.60;99.90
10826;DHT22;5466;55.898;14.094;2024-01-30T02:52:35;-0.50;99.90
10826;DHT22;5466;55.898;14.094;2024-01-30T02:54:36;-0.50;99.90
10826;DHT22;5466;55.898;14.094;2024-01-30T02:56:36;-0.40;99.90
10826;DHT22;5466;55.898;14.094;2024-01-30T02:58:37;-0.40;99.90
10826;DHT22;5466;55.898;14.094;2024-01-30T03:00:37;-0.40;99.90
10826;DHT22;5466;55.898;14.094;2024-01-30T03:02:38;-0.30;99.90
10826;DHT22;5466;55.898;14.094;2024-01-30T03:04:41;-0.30;99.90
10826;DHT22;5466;55.898;14.094;2024-01-30T03:06:45;-0.20;99.90
10826;DHT22;5466;55.898;14.094;2024-01-30T03:08:47;-0.10;99.90
10826;DHT22;5466;55.898;14.094;2024-01-30T03:10:48;0.00;99.90
10826;DHT22;5466;55.898;14.094;2024-01-30T03:12:48;0.00;99.90
10826;DHT22;5466;55.898;14.094;2024-01-30T03:14:49;0.00;99.90
10826;DHT22;5466;55.898;14.094;2024-01-30T03:16:49;0.10;99.90
10826;DHT22;5466;55.898;14.094;2024-01-30T03:18:50;0.10;99.90
10826;DHT22;5466;55.898;14.094;2024-01-30T03:20:51;0.20;99.90
10826;DHT22;5466;55.898;14.094;2024-01-30T03:22:51;0.20;99.90
10826;DHT22;5466;55.898;14.094;2024-01-30T03:24:52;0.20;99.90
10826;DHT22;5466;55.898;14.094;2024-01-30T03:26:53;0.30;99.90
10826;DHT22;5466;55.898;14.094;2024-01-30T03:28:54;0.20;99.90
10826;DHT22;5466;55.898;14.094;2024-01-30T03:30:54;0.20;99.90
10826;DHT22;5466;55.898;14.094;2024-01-30T03:32:55;0.20;99.90
10826;DHT22;5466;55.898;14.094;2024-01-30T03:34:56;0.30;99.90
10826;DHT22;5466;55.898;14.094;2024-01-30T03:36:56;0.30;99.90
10826;DHT22;5466;55.898;14.094;2024-01-30T03:38:57;0.40;99.90
10826;DHT22;5466;55.898;14.094;2024-01-30T03:40:58;0.30;99.90
10826;DHT22;5466;55.898;14.094;2024-01-30T03:42:59;0.40;99.90
10826;DHT22;5466;55.898;14.094;2024-01-30T03:44:59;0.40;99.90
10826;DHT22;5466;55.898;14.094;2024-01-30T03:47:00;0.40;99.90
10826;DHT22;5466;55.898;14.094;2024-01-30T03:49:00;0.50;99.90
10826;DHT22;5466;55.898;14.094;2024-01-30T03:51:01;0.50;99.90
10826;DHT22;5466;55.898;14.094;2024-01-30T03:53:01;0.40;99.90
10826;DHT22;5466;55.898;14.094;2024-01-30T03:55:02;0.40;99.90
10826;DHT22;5466;55.898;14.094;2024-01-30T03:57:03;0.40;99.90
10826;DHT22;5466;55.898;14.094;2024-01-30T03:59:04;0.50;99.90
10826;DHT22;5466;55.898;14.094;2024-01-30T04:01:05;0.50;99.90
10826;DHT22;5466;55.898;14.094;2024-01-30T04:03:05;0.50;99.90
10826;DHT22;5466;55.898;14.094;2024-01-30T04:05:06;0.50;99.90
10826;DHT22;5466;55.898;14.094;2024-01-30T04:07:07;0.60;99.90
10826;DHT22;5466;55.898;14.094;2024-01-30T04:09:08;0.60;99.90
10826;DHT22;5466;55.898;14.094;2024-01-30T04:11:08;0.60;99.90
10826;DHT22;5466;55.898;14.094;2024-01-30T04:13:09;0.60;99.90
10826;DHT22;5466;55.898;14.094;2024-01-30T04:15:09;0.60;99.90
10826;DHT22;5466;55.898;14.094;2024-01-30T04:17:10;0.70;99.90
10826;DHT22;5466;55.898;14.094;2024-01-30T04:19:11;0.70;99.90
10826;DHT22;5466;55.898;14.094;2024-01-30T04:21:11;0.60;99.90
10826;DHT22;5466;55.898;14.094;2024-01-30T04:23:12;0.60;99.90
10826;DHT22;5466;55.898;14.094;2024-01-30T04:25:13;0.60;99.90
10826;DHT22;5466;55.898;14.094;2024-01-30T04:27:14;0.70;99.90
10826;DHT22;5466;55.898;14.094;2024-01-30T04:29:14;0.70;99.90
10826;DHT22;5466;55.898;14.094;2024-01-30T04:31:15;0.70;99.90
10826;DHT22;5466;55.898;14.094;2024-01-30T04:33:16;0.80;99.90
10826;DHT22;5466;55.898;14.094;2024-01-30T04:35:18;0.80;99.90
10826;DHT22;5466;55.898;14.094;2024-01-30T04:37:21;0.80;99.90
10826;DHT22;5466;55.898;14.094;2024-01-30T04:39:21;0.80;99.90
10826;DHT22;5466;55.898;14.094;2024-01-30T04:41:22;0.80;99.90
10826;DHT22;5466;55.898;14.094;2024-01-30T04:43:23;0.80;99.90
10826;DHT22;5466;55.898;14.094;2024-01-30T04:45:24;0.80;99.90
10826;DHT22;5466;55.898;14.094;2024-01-30T04:47:25;0.90;99.90
10826;DHT22;5466;55.898;14.094;2024-01-30T04:49:25;0.90;99.90
10826;DHT22;5466;55.898;14.094;2024-01-30T04:51:26;0.90;99.90
10826;DHT22;5466;55.898;14.094;2024-01-30T04:53:26;1.00;99.90
10826;DHT22;5466;55.898;14.094;2024-01-30T04:55:27;1.00;99.90
10826;DHT22;5466;55.898;14.094;2024-01-30T04:57:28;1.00;99.90
10826;DHT22;5466;55.898;14.094;2024-01-30T04:59:28;1.00;99.90
10826;DHT22;5466;55.898;14.094;2024-01-30T05:01:29;1.00;99.90
10826;DHT22;5466;55.898;14.094;2024-01-30T05:03:33;1.10;99.90
10826;DHT22;5466;55.898;14.094;2024-01-30T05:05:34;1.00;99.90
10826;DHT22;5466;55.898;14.094;2024-01-30T05:07:36;1.00;99.90
10826;DHT22;5466;55.898;14.094;2024-01-30T05:09:36;1.00;99.90
10826;DHT22;5466;55.898;14.094;2024-01-30T05:11:38;1.00;99.90
10826;DHT22;5466;55.898;14.094;2024-01-30T05:13:39;1.00;99.90
10826;DHT22;5466;55.898;14.094;2024-01-30T05:15:40;1.10;99.90
10826;DHT22;5466;55.898;14.094;2024-01-30T05:17:40;1.10;99.90
10826;DHT22;5466;55.898;14.094;2024-01-30T05:19:42;1.10;99.90
10826;DHT22;5466;55.898;14.094;2024-01-30T05:21:42;1.20;99.90
10826;DHT22;5466;55.898;14.094;2024-01-30T05:23:43;1.20;99.90
10826;DHT22;5466;55.898;14.094;2024-01-30T05:25:43;1.10;99.90
10826;DHT22;5466;55.898;14.094;2024-01-30T05:27:44;1.10;99.90
10826;DHT22;5466;55.898;14.094;2024-01-30T05:29:45;1.20;99.90
10826;DHT22;5466;55.898;14.094;2024-01-30T05:31:46;1.20;99.90
10826;DHT22;5466;55.898;14.094;2024-01-30T05:33:47;1.30;99.90
10826;DHT22;5466;55.898;14.094;2024-01-30T05:35:47;1.40;99.90
10826;DHT22;5466;55.898;14.094;2024-01-30T05:37:49;1.40;99.90
10826;DHT22;5466;55.898;14.094;2024-01-30T05:39:50;1.40;99.90
10826;DHT22;5466;55.898;14.094;2024-01-30T05:41:51;1.40;99.90
10826;DHT22;5466;55.898;14.094;2024-01-30T05:43:51;1.50;99.90
10826;DHT22;5466;55.898;14.094;2024-01-30T05:45:52;1.50;99.90
10826;DHT22;5466;55.898;14.094;2024-01-30T05:47:53;1.40;99.90
10826;DHT22;5466;55.898;14.094;2024-01-30T05:49:54;1.30;99.90
10826;DHT22;5466;55.898;14.094;2024-01-30T05:51:54;1.20;99.90
10826;DHT22;5466;55.898;14.094;2024-01-30T05:53:55;1.10;99.90
10826;DHT22;5466;55.898;14.094;2024-01-30T05:55:56;1.10;99.90
10826;DHT22;5466;55.898;14.094;2024-01-30T05:57:56;1.00;99.90
10826;DHT22;5466;55.898;14.094;2024-01-30T05:59:57;1.10;99.90
10826;DHT22;5466;55.898;14.094;2024-01-30T06:01:58;1.00;99.90
10826;DHT22;5466;55.898;14.094;2024-01-30T06:03:58;1.00;99.90
10826;DHT22;5466;55.898;14.094;2024-01-30T06:05:59;0.90;99.90
10826;DHT22;5466;55.898;14.094;2024-01-30T06:08:00;0.90;99.90
10826;DHT22;5466;55.898;14.094;2024-01-30T06:10:00;0.90;99.90
10826;DHT22;5466;55.898;14.094;2024-01-30T06:12:02;0.90;99.90
10826;DHT22;5466;55.898;14.094;2024-01-30T06:14:02;0.80;99.90
10826;DHT22;5466;55.898;14.094;2024-01-30T06:16:03;0.90;99.90
10826;DHT22;5466;55.898;14.094;2024-01-30T06:18:04;0.90;99.90
10826;DHT22;5466;55.898;14.094;2024-01-30T06:20:05;0.90;99.90
10826;DHT22;5466;55.898;14.094;2024-01-30T06:22:06;0.90;99.90
10826;DHT22;5466;55.898;14.094;2024-01-30T06:24:07;0.90;99.90
10826;DHT22;5466;55.898;14.094;2024-01-30T06:26:08;0.90;99.90
10826;DHT22;5466;55.898;14.094;2024-01-30T06:28:08;0.90;99.90
10826;DHT22;5466;55.898;14.094;2024-01-30T06:30:09;1.00;99.90
10826;DHT22;5466;55.898;14.094;2024-01-30T06:32:10;1.00;99.90
10826;DHT22;5466;55.898;14.094;2024-01-30T06:34:10;1.00;99.90
10826;DHT22;5466;55.898;14.094;2024-01-30T06:36:12;1.10;99.90
10826;DHT22;5466;55.898;14.094;2024-01-30T06:38:12;1.20;99.90
10826;DHT22;5466;55.898;14.094;2024-01-30T06:40:14;1.20;99.90
10826;DHT22;5466;55.898;14.094;2024-01-30T06:42:14;1.30;99.90
10826;DHT22;5466;55.898;14.094;2024-01-30T06:44:15;1.30;99.90
10826;DHT22;5466;55.898;14.094;2024-01-30T06:46:15;1.40;99.90
10826;DHT22;5466;55.898;14.094;2024-01-30T06:48:16;1.40;99.90
10826;DHT22;5466;55.898;14.094;2024-01-30T06:50:17;1.40;99.90
10826;DHT22;5466;55.898;14.094;2024-01-30T06:52:17;1.40;99.90
10826;DHT22;5466;55.898;14.094;2024-01-30T06:54:18;1.40;99.90
10826;DHT22;5466;55.898;14.094;2024-01-30T06:56:19;1.40;99.90
10826;DHT22;5466;55.898;14.094;2024-01-30T06:58:21;1.50;99.90
10826;DHT22;5466;55.898;14.094;2024-01-30T07:00:21;1.50;99.90
10826;DHT22;5466;55.898;14.094;2024-01-30T07:02:22;1.50;99.90
10826;DHT22;5466;55.898;14.094;2024-01-30T07:04:23;1.60;99.90
10826;DHT22;5466;55.898;14.094;2024-01-30T07:06:24;1.50;99.90
10826;DHT22;5466;55.898;14.094;2024-01-30T07:08:24;1.50;99.90
10826;DHT22;5466;55.898;14.094;2024-01-30T07:10:25;1.50;99.90
10826;DHT22;5466;55.898;14.094;2024-01-30T07:12:26;1.50;99.90
10826;DHT22;5466;55.898;14.094;2024-01-30T07:14:26;1.50;99.90
10826;DHT22;5466;55.898;14.094;2024-01-30T07:16:27;1.50;99.90
10826;DHT22;5466;55.898;14.094;2024-01-30T07:18:27;1.50;99.90
10826;DHT22;5466;55.898;14.094;2024-01-30T07:20:28;1.60;99.90
10826;DHT22;5466;55.898;14.094;2024-01-30T07:22:30;1.60;99.90
10826;DHT22;5466;55.898;14.094;2024-01-30T07:24:31;1.70;99.90
10826;DHT22;5466;55.898;14.094;2024-01-30T07:26:32;1.70;99.90
10826;DHT22;5466;55.898;14.094;2024-01-30T07:28:32;1.80;99.90
10826;DHT22;5466;55.898;14.094;2024-01-30T07:30:33;1.80;99.90
10826;DHT22;5466;55.898;14.094;2024-01-30T07:32:34;1.80;99.90
10826;DHT22;5466;55.898;14.094;2024-01-30T07:34:34;1.90;99.90
10826;DHT22;5466;55.898;14.094;2024-01-30T07:36:36;1.90;99.90
10826;DHT22;5466;55.898;14.094;2024-01-30T07:38:37;1.90;99.90
10826;DHT22;5466;55.898;14.094;2024-01-30T07:40:37;2.00;99.90
10826;DHT22;5466;55.898;14.094;2024-01-30T07:42:38;2.10;99.90
10826;DHT22;5466;55.898;14.094;2024-01-30T07:44:39;2.10;99.90
10826;DHT22;5466;55.898;14.094;2024-01-30T07:46:39;2.10;99.90
10826;DHT22;5466;55.898;14.094;2024-01-30T07:48:40;2.20;99.90
10826;DHT22;5466;55.898;14.094;2024-01-30T07:50:40;2.30;99.90
10826;DHT22;5466;55.898;14.094;2024-01-30T07:52:42;2.40;99.90
10826;DHT22;5466;55.898;14.094;2024-01-30T07:54:43;2.40;99.90
10826;DHT22;5466;55.898;14.094;2024-01-30T07:56:43;2.50;99.90
10826;DHT22;5466;55.898;14.094;2024-01-30T07:58:44;2.50;99.90
10826;DHT22;5466;55.898;14.094;2024-01-30T08:00:45;2.50;99.90
10826;DHT22;5466;55.898;14.094;2024-01-30T08:02:46;2.60;99.90
10826;DHT22;5466;55.898;14.094;2024-01-30T08:04:47;2.60;99.90
10826;DHT22;5466;55.898;14.094;2024-01-30T08:06:49;2.60;99.90
10826;DHT22;5466;55.898;14.094;2024-01-30T08:08:50;2.70;99.90
10826;DHT22;5466;55.898;14.094;2024-01-30T08:10:53;2.70;99.90
10826;DHT22;5466;55.898;14.094;2024-01-30T08:12:54;2.80;99.90
10826;DHT22;5466;55.898;14.094;2024-01-30T08:14:54;2.80;99.90
10826;DHT22;5466;55.898;14.094;2024-01-30T08:16:55;2.80;99.90
10826;DHT22;5466;55.898;14.094;2024-01-30T08:18:56;2.80;99.90
10826;DHT22;5466;55.898;14.094;2024-01-30T08:20:57;2.90;99.90
10826;DHT22;5466;55.898;14.094;2024-01-30T08:22:59;2.90;99.90
10826;DHT22;5466;55.898;14.094;2024-01-30T08:25:00;3.00;99.90
10826;DHT22;5466;55.898;14.094;2024-01-30T08:27:01;2.90;99.90
10826;DHT22;5466;55.898;14.094;2024-01-30T08:29:03;2.90;99.90
10826;DHT22;5466;55.898;14.094;2024-01-30T08:31:03;2.90;99.90
10826;DHT22;5466;55.898;14.094;2024-01-30T08:33:06;2.90;99.90
10826;DHT22;5466;55.898;14.094;2024-01-30T08:35:07;3.00;99.90
10826;DHT22;5466;55.898;14.094;2024-01-30T08:37:08;2.90;99.90
10826;DHT22;5466;55.898;14.094;2024-01-30T08:39:09;3.00;99.90
10826;DHT22;5466;55.898;14.094;2024-01-30T08:41:10;3.00;99.90
10826;DHT22;5466;55.898;14.094;2024-01-30T08:43:11;3.10;99.90
10826;DHT22;5466;55.898;14.094;2024-01-30T08:45:13;3.10;99.90
10826;DHT22;5466;55.898;14.094;2024-01-30T08:47:13;3.10;99.90
10826;DHT22;5466;55.898;14.094;2024-01-30T08:49:17;3.20;99.90
10826;DHT22;5466;55.898;14.094;2024-01-30T08:51:17;3.20;99.90
10826;DHT22;5466;55.898;14.094;2024-01-30T08:53:18;3.10;99.90
10826;DHT22;5466;55.898;14.094;2024-01-30T08:55:19;3.10;99.90
10826;DHT22;5466;55.898;14.094;2024-01-30T08:57:20;3.10;99.90
10826;DHT22;5466;55.898;14.094;2024-01-30T08:59:20;3.10;99.90
10826;DHT22;5466;55.898;14.094;2024-01-30T09:01:21;3.20;99.90
10826;DHT22;5466;55.898;14.094;2024-01-30T09:03:21;3.30;99.90
10826;DHT22;5466;55.898;14.094;2024-01-30T09:05:22;3.30;99.90
10826;DHT22;5466;55.898;14.094;2024-01-30T09:07:22;3.30;99.90
10826;DHT22;5466;55.898;14.094;2024-01-30T09:09:23;3.40;99.90
10826;DHT22;5466;55.898;14.094;2024-01-30T09:11:24;3.50;99.90
10826;DHT22;5466;55.898;14.094;2024-01-30T09:13:24;3.50;99.90
10826;DHT22;5466;55.898;14.094;2024-01-30T09:15:25;3.60;99.90
10826;DHT22;5466;55.898;14.094;2024-01-30T09:17:26;3.70;99.90
10826;DHT22;5466;55.898;14.094;2024-01-30T09:19:26;3.90;99.90
10826;DHT22;5466;55.898;14.094;2024-01-30T09:21:27;3.90;99.90
10826;DHT22;5466;55.898;14.094;2024-01-30T09:23:28;4.00;99.90
10826;DHT22;5466;55.898;14.094;2024-01-30T09:25:29;4.00;99.90
10826;DHT22;5466;55.898;14.094;2024-01-30T09:27:29;4.10;99.90
10826;DHT22;5466;55.898;14.094;2024-01-30T09:29:30;4.10;99.90
10826;DHT22;5466;55.898;14.094;2024-01-30T09:31:30;4.10;99.90
10826;DHT22;5466;55.898;14.094;2024-01-30T09:33:31;4.10;99.90
10826;DHT22;5466;55.898;14.094;2024-01-30T09:35:32;4.20;99.90
10826;DHT22;5466;55.898;14.094;2024-01-30T09:37:32;4.20;99.90
10826;DHT22;5466;55.898;14.094;2024-01-30T09:39:33;4.20;99.90
10826;DHT22;5466;55.898;14.094;2024-01-30T09:41:41;4.30;99.90
10826;DHT22;5466;55.898;14.094;2024-01-30T09:43:47;4.40;99.90
10826;DHT22;5466;55.898;14.094;2024-01-30T09:45:51;4.40;99.90
10826;DHT22;5466;55.898;14.094;2024-01-30T09:47:53;4.40;99.90
10826;DHT22;5466;55.898;14.094;2024-01-30T09:49:55;4.50;99.90
10826;DHT22;5466;55.898;14.094;2024-01-30T09:51:56;4.60;99.90
10826;DHT22;5466;55.898;14.094;2024-01-30T09:53:56;4.60;99.90
10826;DHT22;5466;55.898;14.094;2024-01-30T09:55:58;4.60;99.90
10826;DHT22;5466;55.898;14.094;2024-01-30T09:57:58;4.50;99.90
10826;DHT22;5466;55.898;14.094;2024-01-30T10:00:00;4.50;99.90
10826;DHT22;5466;55.898;14.094;2024-01-30T10:02:00;4.50;99.90
10826;DHT22;5466;55.898;14.094;2024-01-30T10:04:01;4.60;99.90
10826;DHT22;5466;55.898;14.094;2024-01-30T10:06:01;4.60;99.90
10826;DHT22;5466;55.898;14.094;2024-01-30T10:08:06;4.70;99.90
10826;DHT22;5466;55.898;14.094;2024-01-30T10:10:08;4.70;99.90
10826;DHT22;5466;55.898;14.094;2024-01-30T10:12:09;4.60;99.90
10826;DHT22;5466;55.898;14.094;2024-01-30T10:14:10;4.70;99.90
10826;DHT22;5466;55.898;14.094;2024-01-30T10:16:14;4.70;99.90
10826;DHT22;5466;55.898;14.094;2024-01-30T10:18:15;4.80;99.90
10826;DHT22;5466;55.898;14.094;2024-01-30T10:20:16;4.80;99.90
10826;DHT22;5466;55.898;14.094;2024-01-30T10:22:18;4.90;99.90
10826;DHT22;5466;55.898;14.094;2024-01-30T10:24:18;5.00;99.90
10826;DHT22;5466;55.898;14.094;2024-01-30T10:26:23;5.10;99.90
10826;DHT22;5466;55.898;14.094;2024-01-30T10:28:27;5.20;99.90
10826;DHT22;5466;55.898;14.094;2024-01-30T10:30:30;5.30;99.90
10826;DHT22;5466;55.898;14.094;2024-01-30T10:32:30;5.50;99.90
10826;DHT22;5466;55.898;14.094;2024-01-30T10:34:31;5.60;99.90
10826;DHT22;5466;55.898;14.094;2024-01-30T10:36:35;5.70;99.90
10826;DHT22;5466;55.898;14.094;2024-01-30T10:38:42;5.90;99.90
10826;DHT22;5466;55.898;14.094;2024-01-30T10:40:43;5.80;99.90
10826;DHT22;5466;55.898;14.094;2024-01-30T10:42:45;5.90;99.90
10826;DHT22;5466;55.898;14.094;2024-01-30T10:44:53;6.00;99.90
10826;DHT22;5466;55.898;14.094;2024-01-30T10:47:00;6.10;99.90
10826;DHT22;5466;55.898;14.094;2024-01-30T10:49:02;6.10;99.90
10826;DHT22;5466;55.898;14.094;2024-01-30T10:51:04;6.20;99.90
10826;DHT22;5466;55.898;14.094;2024-01-30T10:53:08;6.30;99.90
10826;DHT22;5466;55.898;14.094;2024-01-30T10:55:10;6.30;99.90
10826;DHT22;5466;55.898;14.094;2024-01-30T10:57:12;6.40;99.90
10826;DHT22;5466;55.898;14.094;2024-01-30T10:59:13;6.40;99.90
10826;DHT22;5466;55.898;14.094;2024-01-30T11:01:15;6.50;99.90
10826;DHT22;5466;55.898;14.094;2024-01-30T11:03:16;6.50;99.90
10826;DHT22;5466;55.898;14.094;2024-01-30T11:05:24;6.50;99.90
10826;DHT22;5466;55.898;14.094;2024-01-30T11:07:28;6.60;99.90
10826;DHT22;5466;55.898;14.094;2024-01-30T11:09:30;6.60;99.90
10826;DHT22;5466;55.898;14.094;2024-01-30T11:11:30;6.50;99.90
10826;DHT22;5466;55.898;14.094;2024-01-30T11:13:31;6.50;99.90
10826;DHT22;5466;55.898;14.094;2024-01-30T11:15:32;6.50;99.90
10826;DHT22;5466;55.898;14.094;2024-01-30T11:19:52;6.70;99.90
10826;DHT22;5466;55.898;14.094;2024-01-30T11:21:53;6.90;99.90
10826;DHT22;5466;55.898;14.094;2024-01-30T11:23:55;7.00;99.90
10826;DHT22;5466;55.898;14.094;2024-01-30T11:25:56;7.10;99.90
10826;DHT22;5466;55.898;14.094;2024-01-30T11:27:57;7.30;99.90
10826;DHT22;5466;55.898;14.094;2024-01-30T11:30:02;7.40;99.90
10826;DHT22;5466;55.898;14.094;2024-01-30T11:32:03;7.40;99.90
10826;DHT22;5466;55.898;14.094;2024-01-30T11:34:04;7.50;99.90
10826;DHT22;5466;55.898;14.094;2024-01-30T11:36:05;7.60;99.90
10826;DHT22;5466;55.898;14.094;2024-01-30T11:38:13;7.70;99.90
10826;DHT22;5466;55.898;14.094;2024-01-30T11:40:14;7.80;99.90
10826;DHT22;5466;55.898;14.094;2024-01-30T11:42:14;8.00;99.90
10826;DHT22;5466;55.898;14.094;2024-01-30T11:44:15;8.10;99.90
10826;DHT22;5466;55.898;14.094;2024-01-30T11:46:17;8.10;99.90
10826;DHT22;5466;55.898;14.094;2024-01-30T11:48:18;8.20;99.90
10826;DHT22;5466;55.898;14.094;2024-01-30T11:50:19;8.00;99.90
10826;DHT22;5466;55.898;14.094;2024-01-30T11:52:19;7.90;99.90
10826;DHT22;5466;55.898;14.094;2024-01-30T11:54:20;7.90;99.90
10826;DHT22;5466;55.898;14.094;2024-01-30T11:56:21;7.90;99.90
10826;DHT22;5466;55.898;14.094;2024-01-30T11:58:25;7.90;99.90
10826;DHT22;5466;55.898;14.094;2024-01-30T12:00:26;8.00;99.90
10826;DHT22;5466;55.898;14.094;2024-01-30T12:02:27;8.10;99.90
10826;DHT22;5466;55.898;14.094;2024-01-30T12:04:28;8.10;99.90
10826;DHT22;5466;55.898;14.094;2024-01-30T12:06:30;8.10;99.90
10826;DHT22;5466;55.898;14.094;2024-01-30T12:08:30;8.00;99.90
10826;DHT22;5466;55.898;14.094;2024-01-30T12:10:31;8.10;99.90
10826;DHT22;5466;55.898;14.094;2024-01-30T12:12:32;8.10;99.90
10826;DHT22;5466;55.898;14.094;2024-01-30T12:14:32;8.00;99.90
10826;DHT22;5466;55.898;14.094;2024-01-30T12:16:33;8.00;99.90
10826;DHT22;5466;55.898;14.094;2024-01-30T12:18:34;8.00;99.90
10826;DHT22;5466;55.898;14.094;2024-01-30T12:20:34;8.00;99.90
10826;DHT22;5466;55.898;14.094;2024-01-30T12:22:39;8.00;99.90
10826;DHT22;5466;55.898;14.094;2024-01-30T12:24:40;7.90;99.90
10826;DHT22;5466;55.898;14.094;2024-01-30T12:26:41;7.90;99.90
10826;DHT22;5466;55.898;14.094;2024-01-30T12:28:50;7.90;99.90
10826;DHT22;5466;55.898;14.094;2024-01-30T12:30:56;7.90;99.90
10826;DHT22;5466;55.898;14.094;2024-01-30T12:32:57;7.80;99.90
10826;DHT22;5466;55.898;14.094;2024-01-30T12:34:58;7.90;99.90
10826;DHT22;5466;55.898;14.094;2024-01-30T12:36:59;7.90;99.90
10826;DHT22;5466;55.898;14.094;2024-01-30T12:39:00;7.90;99.90
10826;DHT22;5466;55.898;14.094;2024-01-30T12:41:01;7.80;99.90
10826;DHT22;5466;55.898;14.094;2024-01-30T12:43:02;7.70;99.90
10826;DHT22;5466;55.898;14.094;2024-01-30T12:45:04;7.60;99.90
10826;DHT22;5466;55.898;14.094;2024-01-30T12:47:05;7.60;99.90
10826;DHT22;5466;55.898;14.094;2024-01-30T12:49:06;7.60;99.90
10826;DHT22;5466;55.898;14.094;2024-01-30T12:51:07;7.50;99.90
10826;DHT22;5466;55.898;14.094;2024-01-30T12:53:08;7.60;99.90
10826;DHT22;5466;55.898;14.094;2024-01-30T12:55:09;7.60;99.90
10826;DHT22;5466;55.898;14.094;2024-01-30T12:57:10;7.60;99.90